Etusivu
METAR-TAF:

METAR-TAF

Lentoasemat :

Teheran, Iran

Leveyspiiri: 35-41N, Pituuspiiri: 051-21E, korkeus merenpinnasta: 1204 m

Tämänhetkinen sää

Tämä raportti tehtiin 37 minuuttia sitten, kello 09.30 UTC
Tuuli 6 kn lännestä
Lämpötila 34°C
Kosteus 7%
Ilmanpaine 1014 hPa
Näkyvyys 10 km tai enemmän
Muutamia pilviä 4000 ft:n korkeudessa

METAR: OIII 270930Z 26006KT 9999 FEW040 34/M07 Q1014 A2995 NOSIG

Aika: 14:37 (10:07 UTC)

Sääennuste

Tämä raportti tehtiin 4 tuntia ja 37 minuuttia sitten, kello 05.30 UTC
Ennuste voimassa 27. päivästä klo 06 UTC - 28. päivään klo 12 UTC
Tuuli 6 kn lännestä/luoteesta
Näkyvyys 10 km tai enemmän
ei pilviä alle 1500 m:ssä eikä cumulonimbus-pilviä
Ajoittain
27. päivästä klo 12 UTC - 27. päivään klo 18 UTC
Tuuli 16 kn lännestä/luoteesta
Ajoittain
28. päivästä klo 08 UTC - 28. päivään klo 12 UTC
Tuuli 17 kn lännestä/luoteesta

TAF: OIII 270530Z 2706/2812 30003MPS CAVOK TEMPO 2712/2718 30008MPS TEMPO 2808/2812 30009MPS

Säähavainnot ja -ennusteet yli 4000 lentoasemalta (METAR- ja TAF-raportit).

Käytössä olevat sääasemat on merkitty karttaan keltaisilla ja punaisilla pisteillä.

Aseta hiiri pisteen päälle nähdäksesi sääaseman nimen.

Klikkaa sitten nähdäksesi säähavainnot ja -ennusteet.

Kartan vaihtaminen: klikkaa mustalla rastilla varustettuja vihreitä pisteitä, niin voit zoomata sisään; viivalla varustettua vihreää pistettä, niin voit zoomata ulos tai vihreitä nuolia, niin pääset viereisille kartoille.


METAR-TAF: